sensor_id;sensor_type;location;lat;lon;timestamp;pressure;altitude;pressure_sealevel;temperature;humidity
32197;BME280;18697;42.770;23.400;2023-02-28T00:00:21;96123.47;;;8.61;85.11
32197;BME280;18697;42.770;23.400;2023-02-28T00:02:47;96135.22;;;8.65;84.67
32197;BME280;18697;42.770;23.400;2023-02-28T00:05:15;96142.66;;;8.68;84.74
32197;BME280;18697;42.770;23.400;2023-02-28T00:07:40;96132.69;;;8.71;84.21
32197;BME280;18697;42.770;23.400;2023-02-28T00:10:09;96129.16;;;8.70;83.62
32197;BME280;18697;42.770;23.400;2023-02-28T00:12:35;96129.13;;;8.57;83.62
32197;BME280;18697;42.770;23.400;2023-02-28T00:15:01;96145.81;;;8.54;84.06
32197;BME280;18697;42.770;23.400;2023-02-28T00:17:27;96154.22;;;8.50;84.34
32197;BME280;18697;42.770;23.400;2023-02-28T00:19:52;96150.16;;;8.55;84.06
32197;BME280;18697;42.770;23.400;2023-02-28T00:22:20;96142.81;;;8.48;83.72
32197;BME280;18697;42.770;23.400;2023-02-28T00:24:46;96152.25;;;8.51;84.36
32197;BME280;18697;42.770;23.400;2023-02-28T00:27:13;96148.94;;;8.56;83.98
32197;BME280;18697;42.770;23.400;2023-02-28T00:29:38;96155.59;;;8.59;83.62
32197;BME280;18697;42.770;23.400;2023-02-28T00:32:04;96164.47;;;8.66;83.51
32197;BME280;18697;42.770;23.400;2023-02-28T00:34:31;96161.84;;;8.75;82.64
32197;BME280;18697;42.770;23.400;2023-02-28T00:36:56;96156.00;;;8.86;81.93
32197;BME280;18697;42.770;23.400;2023-02-28T00:39:22;96162.06;;;8.94;81.63
32197;BME280;18697;42.770;23.400;2023-02-28T00:41:47;96157.88;;;9.02;81.25
32197;BME280;18697;42.770;23.400;2023-02-28T00:44:12;96156.22;;;9.04;80.63
32197;BME280;18697;42.770;23.400;2023-02-28T00:46:38;96160.13;;;9.07;80.36
32197;BME280;18697;42.770;23.400;2023-02-28T00:49:03;96155.13;;;9.14;80.49
32197;BME280;18697;42.770;23.400;2023-02-28T00:51:29;96144.94;;;9.11;80.36
32197;BME280;18697;42.770;23.400;2023-02-28T00:53:54;96153.34;;;9.08;80.71
32197;BME280;18697;42.770;23.400;2023-02-28T00:56:20;96149.81;;;9.07;80.35
32197;BME280;18697;42.770;23.400;2023-02-28T00:58:45;96144.03;;;9.02;80.30
32197;BME280;18697;42.770;23.400;2023-02-28T01:01:10;96132.63;;;9.00;80.27
32197;BME280;18697;42.770;23.400;2023-02-28T01:03:36;96123.19;;;8.97;79.84
32197;BME280;18697;42.770;23.400;2023-02-28T01:06:01;96120.53;;;8.94;79.80
32197;BME280;18697;42.770;23.400;2023-02-28T01:08:27;96124.31;;;8.87;80.19
32197;BME280;18697;42.770;23.400;2023-02-28T01:10:52;96120.88;;;8.83;80.34
32197;BME280;18697;42.770;23.400;2023-02-28T01:13:18;96120.09;;;8.82;80.43
32197;BME280;18697;42.770;23.400;2023-02-28T01:15:52;96130.06;;;8.80;80.54
32197;BME280;18697;42.770;23.400;2023-02-28T01:18:18;96120.72;;;8.61;80.97
32197;BME280;18697;42.770;23.400;2023-02-28T01:20:44;96126.75;;;8.85;80.33
32197;BME280;18697;42.770;23.400;2023-02-28T01:23:11;96127.63;;;8.95;79.49
32197;BME280;18697;42.770;23.400;2023-02-28T01:25:36;96131.94;;;8.96;78.94
32197;BME280;18697;42.770;23.400;2023-02-28T01:28:02;96125.63;;;8.95;78.68
32197;BME280;18697;42.770;23.400;2023-02-28T01:30:27;96127.53;;;8.85;78.44
32197;BME280;18697;42.770;23.400;2023-02-28T01:32:53;96125.19;;;8.84;78.87
32197;BME280;18697;42.770;23.400;2023-02-28T01:35:19;96117.75;;;8.94;78.71
32197;BME280;18697;42.770;23.400;2023-02-28T01:37:44;96116.78;;;9.00;78.35
32197;BME280;18697;42.770;23.400;2023-02-28T01:40:10;96118.31;;;9.01;77.93
32197;BME280;18697;42.770;23.400;2023-02-28T01:42:35;96121.53;;;9.00;77.43
32197;BME280;18697;42.770;23.400;2023-02-28T01:45:31;96112.66;;;9.05;77.54
32197;BME280;18697;42.770;23.400;2023-02-28T01:48:07;96108.13;;;8.98;76.92
32197;BME280;18697;42.770;23.400;2023-02-28T01:50:39;96117.66;;;8.97;76.74
32197;BME280;18697;42.770;23.400;2023-02-28T01:53:08;96129.63;;;8.94;76.59
32197;BME280;18697;42.770;23.400;2023-02-28T01:55:36;96127.25;;;8.67;77.12
32197;BME280;18697;42.770;23.400;2023-02-28T01:58:04;96130.16;;;8.76;77.67
32197;BME280;18697;42.770;23.400;2023-02-28T02:00:31;96128.59;;;8.75;76.87
32197;BME280;18697;42.770;23.400;2023-02-28T02:02:59;96119.53;;;8.75;76.75
32197;BME280;18697;42.770;23.400;2023-02-28T02:05:28;96122.97;;;8.79;76.42
32197;BME280;18697;42.770;23.400;2023-02-28T02:07:58;96124.97;;;8.78;76.31
32197;BME280;18697;42.770;23.400;2023-02-28T02:10:33;96132.06;;;8.79;76.10
32197;BME280;18697;42.770;23.400;2023-02-28T02:13:09;96134.91;;;8.76;75.91
32197;BME280;18697;42.770;23.400;2023-02-28T02:30:05;96132.13;;;8.34;75.97
32197;BME280;18697;42.770;23.400;2023-02-28T02:35:35;96134.34;;;8.10;76.87
32197;BME280;18697;42.770;23.400;2023-02-28T02:38:43;96141.53;;;8.08;77.26
32197;BME280;18697;42.770;23.400;2023-02-28T02:43:54;96135.13;;;8.11;77.46
32197;BME280;18697;42.770;23.400;2023-02-28T02:46:36;96135.59;;;8.22;77.50
32197;BME280;18697;42.770;23.400;2023-02-28T02:49:08;96144.44;;;8.17;77.63
32197;BME280;18697;42.770;23.400;2023-02-28T02:51:35;96142.22;;;8.12;77.81
32197;BME280;18697;42.770;23.400;2023-02-28T02:56:29;96147.53;;;8.19;77.72
32197;BME280;18697;42.770;23.400;2023-02-28T02:59:00;96152.09;;;7.97;77.69
32197;BME280;18697;42.770;23.400;2023-02-28T03:01:28;96152.69;;;7.88;77.42
32197;BME280;18697;42.770;23.400;2023-02-28T03:03:59;96153.66;;;7.65;77.87
32197;BME280;18697;42.770;23.400;2023-02-28T03:06:26;96159.78;;;7.73;78.57
32197;BME280;18697;42.770;23.400;2023-02-28T03:08:52;96149.06;;;7.75;78.55
32197;BME280;18697;42.770;23.400;2023-02-28T03:11:17;96152.88;;;7.81;78.55
32197;BME280;18697;42.770;23.400;2023-02-28T03:22:43;96179.13;;;7.56;79.59
32197;BME280;18697;42.770;23.400;2023-02-28T03:25:27;96184.41;;;7.35;80.39
32197;BME280;18697;42.770;23.400;2023-02-28T03:28:22;96191.56;;;7.32;82.00
32197;BME280;18697;42.770;23.400;2023-02-28T03:30:56;96190.81;;;7.12;83.70
32197;BME280;18697;42.770;23.400;2023-02-28T03:33:30;96191.53;;;7.16;84.10
32197;BME280;18697;42.770;23.400;2023-02-28T03:36:08;96196.56;;;7.21;84.54
32197;BME280;18697;42.770;23.400;2023-02-28T03:38:46;96196.19;;;7.19;85.96
32197;BME280;18697;42.770;23.400;2023-02-28T03:41:20;96197.56;;;7.11;86.91
32197;BME280;18697;42.770;23.400;2023-02-28T03:43:54;96194.09;;;7.07;87.76
32197;BME280;18697;42.770;23.400;2023-02-28T03:46:24;96195.53;;;6.95;88.76
32197;BME280;18697;42.770;23.400;2023-02-28T03:51:21;96199.66;;;6.67;91.38
32197;BME280;18697;42.770;23.400;2023-02-28T03:53:53;96197.97;;;6.53;92.34
32197;BME280;18697;42.770;23.400;2023-02-28T03:59:08;96213.13;;;6.65;93.44
32197;BME280;18697;42.770;23.400;2023-02-28T04:01:39;96206.28;;;6.70;93.48
32197;BME280;18697;42.770;23.400;2023-02-28T04:04:07;96222.06;;;6.69;93.25
32197;BME280;18697;42.770;23.400;2023-02-28T04:06:33;96220.81;;;6.74;93.18
32197;BME280;18697;42.770;23.400;2023-02-28T04:08:59;96223.34;;;6.84;92.61
32197;BME280;18697;42.770;23.400;2023-02-28T04:11:35;96219.44;;;7.02;91.90
32197;BME280;18697;42.770;23.400;2023-02-28T04:14:02;96219.78;;;7.23;91.96
32197;BME280;18697;42.770;23.400;2023-02-28T04:16:29;96214.72;;;7.38;90.71
32197;BME280;18697;42.770;23.400;2023-02-28T04:18:54;96213.31;;;7.46;88.98
32197;BME280;18697;42.770;23.400;2023-02-28T04:21:30;96226.13;;;7.56;87.62
32197;BME280;18697;42.770;23.400;2023-02-28T04:23:56;96218.72;;;7.70;86.61
32197;BME280;18697;42.770;23.400;2023-02-28T04:26:33;96208.63;;;7.79;85.08
32197;BME280;18697;42.770;23.400;2023-02-28T04:28:59;96206.97;;;7.82;84.82
32197;BME280;18697;42.770;23.400;2023-02-28T04:31:25;96210.59;;;7.79;84.12
32197;BME280;18697;42.770;23.400;2023-02-28T04:33:50;96217.69;;;7.64;84.05
32197;BME280;18697;42.770;23.400;2023-02-28T04:36:16;96216.13;;;7.63;84.09
32197;BME280;18697;42.770;23.400;2023-02-28T04:38:43;96202.47;;;7.39;83.80
32197;BME280;18697;42.770;23.400;2023-02-28T04:41:10;96205.34;;;7.16;84.06
32197;BME280;18697;42.770;23.400;2023-02-28T04:43:35;96211.78;;;7.09;84.95
32197;BME280;18697;42.770;23.400;2023-02-28T04:46:02;96211.16;;;7.21;85.43
32197;BME280;18697;42.770;23.400;2023-02-28T04:48:28;96208.22;;;7.29;85.11
32197;BME280;18697;42.770;23.400;2023-02-28T04:50:55;96206.75;;;7.24;83.62
32197;BME280;18697;42.770;23.400;2023-02-28T04:53:21;96221.97;;;7.32;83.90
32197;BME280;18697;42.770;23.400;2023-02-28T04:55:46;96227.69;;;7.41;84.04
32197;BME280;18697;42.770;23.400;2023-02-28T04:58:13;96226.13;;;7.40;84.65
32197;BME280;18697;42.770;23.400;2023-02-28T05:00:39;96219.22;;;7.48;83.93
32197;BME280;18697;42.770;23.400;2023-02-28T05:03:04;96215.59;;;7.35;85.72
32197;BME280;18697;42.770;23.400;2023-02-28T05:05:29;96221.03;;;7.55;85.28
32197;BME280;18697;42.770;23.400;2023-02-28T05:07:55;96229.56;;;7.44;84.73
32197;BME280;18697;42.770;23.400;2023-02-28T05:10:22;96229.13;;;7.30;85.69
32197;BME280;18697;42.770;23.400;2023-02-28T05:12:48;96232.81;;;7.23;86.32
32197;BME280;18697;42.770;23.400;2023-02-28T05:15:14;96235.44;;;7.30;86.76
32197;BME280;18697;42.770;23.400;2023-02-28T05:17:40;96237.84;;;7.28;87.19
32197;BME280;18697;42.770;23.400;2023-02-28T05:20:07;96244.06;;;7.32;86.63
32197;BME280;18697;42.770;23.400;2023-02-28T05:22:33;96243.50;;;7.41;86.64
32197;BME280;18697;42.770;23.400;2023-02-28T05:24:59;96244.59;;;7.43;86.42
32197;BME280;18697;42.770;23.400;2023-02-28T05:27:24;96251.00;;;7.40;85.68
32197;BME280;18697;42.770;23.400;2023-02-28T05:29:50;96252.38;;;7.48;85.51
32197;BME280;18697;42.770;23.400;2023-02-28T05:32:15;96256.28;;;7.51;85.14
32197;BME280;18697;42.770;23.400;2023-02-28T05:34:41;96261.78;;;7.51;85.28
32197;BME280;18697;42.770;23.400;2023-02-28T05:37:11;96265.34;;;7.51;84.89
32197;BME280;18697;42.770;23.400;2023-02-28T05:39:37;96256.63;;;7.53;84.80
32197;BME280;18697;42.770;23.400;2023-02-28T05:42:04;96263.19;;;7.59;84.21
32197;BME280;18697;42.770;23.400;2023-02-28T05:44:29;96271.41;;;7.63;84.44
32197;BME280;18697;42.770;23.400;2023-02-28T05:46:55;96270.13;;;7.67;83.94
32197;BME280;18697;42.770;23.400;2023-02-28T05:49:20;96265.66;;;7.73;83.67
32197;BME280;18697;42.770;23.400;2023-02-28T05:51:45;96263.66;;;7.74;83.46
32197;BME280;18697;42.770;23.400;2023-02-28T05:54:11;96265.66;;;7.73;83.13
32197;BME280;18697;42.770;23.400;2023-02-28T05:56:36;96265.72;;;7.70;83.17
32197;BME280;18697;42.770;23.400;2023-02-28T05:59:05;96267.94;;;7.42;83.44
32197;BME280;18697;42.770;23.400;2023-02-28T06:01:32;96265.19;;;7.58;84.02
32197;BME280;18697;42.770;23.400;2023-02-28T06:03:59;96277.34;;;7.45;83.30
32197;BME280;18697;42.770;23.400;2023-02-28T06:06:25;96275.25;;;7.49;83.19
32197;BME280;18697;42.770;23.400;2023-02-28T06:08:51;96276.03;;;7.49;84.03
32197;BME280;18697;42.770;23.400;2023-02-28T06:11:16;96281.19;;;7.67;84.07
32197;BME280;18697;42.770;23.400;2023-02-28T06:13:41;96274.69;;;7.57;83.55
32197;BME280;18697;42.770;23.400;2023-02-28T06:16:10;96280.09;;;7.81;84.01
32197;BME280;18697;42.770;23.400;2023-02-28T06:18:36;96284.09;;;7.96;83.85
32197;BME280;18697;42.770;23.400;2023-02-28T06:21:01;96278.38;;;8.03;82.98
32197;BME280;18697;42.770;23.400;2023-02-28T06:23:27;96287.03;;;8.05;81.95
32197;BME280;18697;42.770;23.400;2023-02-28T06:25:52;96293.25;;;8.09;81.64
32197;BME280;18697;42.770;23.400;2023-02-28T06:28:18;96284.09;;;8.12;81.50
32197;BME280;18697;42.770;23.400;2023-02-28T06:30:43;96292.53;;;8.21;82.18
32197;BME280;18697;42.770;23.400;2023-02-28T06:33:09;96294.44;;;8.24;81.79
32197;BME280;18697;42.770;23.400;2023-02-28T06:35:34;96287.34;;;8.23;81.41
32197;BME280;18697;42.770;23.400;2023-02-28T06:38:00;96292.97;;;8.20;81.63
32197;BME280;18697;42.770;23.400;2023-02-28T06:40:25;96293.88;;;8.17;81.00
32197;BME280;18697;42.770;23.400;2023-02-28T06:42:51;96293.53;;;8.15;81.26
32197;BME280;18697;42.770;23.400;2023-02-28T06:45:17;96297.72;;;8.19;81.50
32197;BME280;18697;42.770;23.400;2023-02-28T06:47:42;96291.63;;;8.12;80.88
32197;BME280;18697;42.770;23.400;2023-02-28T06:50:12;96295.06;;;8.00;81.96
32197;BME280;18697;42.770;23.400;2023-02-28T06:52:38;96286.75;;;7.83;82.58
32197;BME280;18697;42.770;23.400;2023-02-28T06:55:05;96287.84;;;7.70;83.40
32197;BME280;18697;42.770;23.400;2023-02-28T06:57:32;96292.31;;;7.64;84.54
32197;BME280;18697;42.770;23.400;2023-02-28T07:00:05;96287.16;;;7.66;85.63
32197;BME280;18697;42.770;23.400;2023-02-28T07:02:33;96290.69;;;7.66;85.60
32197;BME280;18697;42.770;23.400;2023-02-28T07:04:58;96291.28;;;7.57;86.29
32197;BME280;18697;42.770;23.400;2023-02-28T07:07:23;96298.00;;;7.56;86.94
32197;BME280;18697;42.770;23.400;2023-02-28T07:09:49;96288.84;;;7.59;87.80
32197;BME280;18697;42.770;23.400;2023-02-28T07:12:14;96295.59;;;7.58;88.57
32197;BME280;18697;42.770;23.400;2023-02-28T07:14:40;96293.53;;;7.63;89.17
32197;BME280;18697;42.770;23.400;2023-02-28T07:17:10;96281.88;;;7.71;89.90
32197;BME280;18697;42.770;23.400;2023-02-28T07:19:40;96284.34;;;7.85;90.25
32197;BME280;18697;42.770;23.400;2023-02-28T07:22:06;96293.84;;;8.01;90.31
32197;BME280;18697;42.770;23.400;2023-02-28T07:24:32;96278.66;;;8.09;90.38
32197;BME280;18697;42.770;23.400;2023-02-28T07:26:57;96289.00;;;8.21;90.36
32197;BME280;18697;42.770;23.400;2023-02-28T07:29:22;96287.19;;;8.31;90.57
32197;BME280;18697;42.770;23.400;2023-02-28T07:31:48;96290.25;;;8.36;91.02
32197;BME280;18697;42.770;23.400;2023-02-28T07:34:15;96287.03;;;8.38;91.63
32197;BME280;18697;42.770;23.400;2023-02-28T07:36:41;96286.59;;;8.39;92.37
32197;BME280;18697;42.770;23.400;2023-02-28T07:39:06;96277.97;;;8.37;93.08
32197;BME280;18697;42.770;23.400;2023-02-28T07:41:34;96286.00;;;8.48;93.42
32197;BME280;18697;42.770;23.400;2023-02-28T07:44:02;96286.69;;;8.52;93.62
32197;BME280;18697;42.770;23.400;2023-02-28T07:46:28;96279.25;;;8.49;97.69
32197;BME280;18697;42.770;23.400;2023-02-28T07:49:00;96281.75;;;8.43;100.00
32197;BME280;18697;42.770;23.400;2023-02-28T07:51:25;96289.63;;;8.45;100.00
32197;BME280;18697;42.770;23.400;2023-02-28T07:53:51;96285.03;;;8.54;100.00
32197;BME280;18697;42.770;23.400;2023-02-28T07:56:16;96285.13;;;8.51;100.00
32197;BME280;18697;42.770;23.400;2023-02-28T07:58:41;96290.41;;;8.62;100.00
32197;BME280;18697;42.770;23.400;2023-02-28T08:01:08;96284.31;;;8.67;100.00
32197;BME280;18697;42.770;23.400;2023-02-28T08:03:34;96279.31;;;8.62;100.00
32197;BME280;18697;42.770;23.400;2023-02-28T08:06:00;96288.13;;;8.73;100.00
32197;BME280;18697;42.770;23.400;2023-02-28T08:08:27;96281.63;;;8.79;100.00
32197;BME280;18697;42.770;23.400;2023-02-28T08:11:01;96280.56;;;8.89;100.00
32197;BME280;18697;42.770;23.400;2023-02-28T08:13:28;96288.31;;;8.95;100.00
32197;BME280;18697;42.770;23.400;2023-02-28T08:15:54;96283.44;;;8.99;100.00
32197;BME280;18697;42.770;23.400;2023-02-28T08:18:21;96290.53;;;9.00;100.00
32197;BME280;18697;42.770;23.400;2023-02-28T08:20:46;96287.78;;;9.00;100.00
32197;BME280;18697;42.770;23.400;2023-02-28T08:23:12;96301.28;;;8.98;100.00
32197;BME280;18697;42.770;23.400;2023-02-28T08:25:38;96287.97;;;8.93;100.00
32197;BME280;18697;42.770;23.400;2023-02-28T08:28:03;96294.44;;;9.02;100.00
32197;BME280;18697;42.770;23.400;2023-02-28T08:30:29;96294.53;;;8.99;100.00
32197;BME280;18697;42.770;23.400;2023-02-28T08:32:54;96293.31;;;9.00;100.00
32197;BME280;18697;42.770;23.400;2023-02-28T08:35:21;96302.47;;;9.13;100.00
32197;BME280;18697;42.770;23.400;2023-02-28T08:37:49;96297.59;;;9.17;100.00
32197;BME280;18697;42.770;23.400;2023-02-28T08:40:16;96293.03;;;9.10;100.00
32197;BME280;18697;42.770;23.400;2023-02-28T08:42:44;96295.84;;;9.23;100.00
32197;BME280;18697;42.770;23.400;2023-02-28T08:45:11;96294.75;;;9.33;100.00
32197;BME280;18697;42.770;23.400;2023-02-28T08:47:36;96299.31;;;9.40;100.00
32197;BME280;18697;42.770;23.400;2023-02-28T08:50:03;96300.69;;;9.48;100.00
32197;BME280;18697;42.770;23.400;2023-02-28T08:52:28;96297.47;;;9.49;100.00
32197;BME280;18697;42.770;23.400;2023-02-28T08:54:53;96303.81;;;9.63;100.00
32197;BME280;18697;42.770;23.400;2023-02-28T08:57:19;96296.03;;;9.58;99.61
32197;BME280;18697;42.770;23.400;2023-02-28T08:59:44;96288.16;;;9.56;99.41
32197;BME280;18697;42.770;23.400;2023-02-28T09:02:12;96302.47;;;9.67;99.95
32197;BME280;18697;42.770;23.400;2023-02-28T09:04:37;96306.13;;;9.51;100.00
32197;BME280;18697;42.770;23.400;2023-02-28T09:07:03;96295.25;;;9.57;100.00
32197;BME280;18697;42.770;23.400;2023-02-28T09:09:28;96296.38;;;9.60;100.00
32197;BME280;18697;42.770;23.400;2023-02-28T09:11:55;96308.69;;;9.71;100.00
32197;BME280;18697;42.770;23.400;2023-02-28T09:14:21;96301.47;;;9.61;100.00
32197;BME280;18697;42.770;23.400;2023-02-28T09:16:46;96296.38;;;9.60;100.00
32197;BME280;18697;42.770;23.400;2023-02-28T09:19:12;96296.59;;;9.65;100.00
32197;BME280;18697;42.770;23.400;2023-02-28T09:21:38;96299.13;;;9.72;99.56
32197;BME280;18697;42.770;23.400;2023-02-28T09:24:03;96289.84;;;9.92;99.17
32197;BME280;18697;42.770;23.400;2023-02-28T09:26:28;96287.94;;;10.14;99.11
32197;BME280;18697;42.770;23.400;2023-02-28T09:28:54;96292.28;;;10.28;97.88
32197;BME280;18697;42.770;23.400;2023-02-28T09:31:23;96295.50;;;10.39;96.00
32197;BME280;18697;42.770;23.400;2023-02-28T09:33:50;96286.69;;;10.40;94.64
32197;BME280;18697;42.770;23.400;2023-02-28T09:36:16;96285.03;;;10.43;93.35
32197;BME280;18697;42.770;23.400;2023-02-28T09:38:42;96278.59;;;10.46;92.22
32197;BME280;18697;42.770;23.400;2023-02-28T09:41:20;96283.78;;;10.57;93.17
32197;BME280;18697;42.770;23.400;2023-02-28T09:43:56;96277.91;;;10.42;92.25
32197;BME280;18697;42.770;23.400;2023-02-28T09:48:52;96275.56;;;10.53;93.61
32197;BME280;18697;42.770;23.400;2023-02-28T09:53:53;96282.88;;;10.60;91.44
32197;BME280;18697;42.770;23.400;2023-02-28T09:56:21;96290.78;;;10.61;91.61
32197;BME280;18697;42.770;23.400;2023-02-28T09:59:25;96287.53;;;10.63;91.07
32197;BME280;18697;42.770;23.400;2023-02-28T10:02:04;96280.97;;;10.69;91.10
32197;BME280;18697;42.770;23.400;2023-02-28T10:04:51;96274.06;;;10.74;90.30
32197;BME280;18697;42.770;23.400;2023-02-28T10:10:26;96274.59;;;10.81;89.37
32197;BME280;18697;42.770;23.400;2023-02-28T10:12:55;96266.50;;;10.74;89.77
32197;BME280;18697;42.770;23.400;2023-02-28T10:15:23;96268.72;;;10.79;89.63
32197;BME280;18697;42.770;23.400;2023-02-28T10:17:54;96271.97;;;10.65;89.70
32197;BME280;18697;42.770;23.400;2023-02-28T10:20:24;96262.06;;;10.77;89.65
32197;BME280;18697;42.770;23.400;2023-02-28T10:25:37;96254.56;;;10.86;88.87
32197;BME280;18697;42.770;23.400;2023-02-28T10:28:11;96257.84;;;10.72;88.70
32197;BME280;18697;42.770;23.400;2023-02-28T10:30:40;96256.16;;;10.75;88.99
32197;BME280;18697;42.770;23.400;2023-02-28T10:33:23;96243.84;;;10.76;89.38
32197;BME280;18697;42.770;23.400;2023-02-28T10:35:50;96235.38;;;10.79;89.67
32197;BME280;18697;42.770;23.400;2023-02-28T10:38:19;96237.44;;;10.88;88.31
32197;BME280;18697;42.770;23.400;2023-02-28T10:40:45;96237.69;;;10.81;88.07
32197;BME280;18697;42.770;23.400;2023-02-28T10:45:39;96239.19;;;10.95;87.22
32197;BME280;18697;42.770;23.400;2023-02-28T10:50:51;96229.16;;;10.75;88.87
32197;BME280;18697;42.770;23.400;2023-02-28T10:53:25;96233.56;;;10.85;88.89
32197;BME280;18697;42.770;23.400;2023-02-28T11:01:21;96204.44;;;10.90;87.63
32197;BME280;18697;42.770;23.400;2023-02-28T11:03:48;96207.00;;;11.06;87.14
32197;BME280;18697;42.770;23.400;2023-02-28T11:06:17;96206.09;;;11.09;86.83
32197;BME280;18697;42.770;23.400;2023-02-28T11:08:49;96195.78;;;11.19;86.56
32197;BME280;18697;42.770;23.400;2023-02-28T11:11:16;96203.72;;;11.30;85.68
32197;BME280;18697;42.770;23.400;2023-02-28T11:13:44;96194.22;;;11.40;85.71
32197;BME280;18697;42.770;23.400;2023-02-28T11:16:12;96192.66;;;11.39;85.02
32197;BME280;18697;42.770;23.400;2023-02-28T11:18:57;96186.69;;;11.49;85.18
32197;BME280;18697;42.770;23.400;2023-02-28T11:21:29;96205.75;;;11.29;83.50
32197;BME280;18697;42.770;23.400;2023-02-28T11:24:03;96180.63;;;11.42;85.24
32197;BME280;18697;42.770;23.400;2023-02-28T11:26:38;96188.34;;;11.16;84.51
32197;BME280;18697;42.770;23.400;2023-02-28T11:29:22;96182.72;;;10.98;85.54
32197;BME280;18697;42.770;23.400;2023-02-28T11:34:34;96181.03;;;11.00;86.83
32197;BME280;18697;42.770;23.400;2023-02-28T11:37:01;96185.22;;;11.05;86.10
32197;BME280;18697;42.770;23.400;2023-02-28T11:39:32;96190.00;;;11.04;86.00
32197;BME280;18697;42.770;23.400;2023-02-28T11:50:20;96184.97;;;11.12;85.88
32197;BME280;18697;42.770;23.400;2023-02-28T11:53:01;96188.66;;;11.09;85.69
32197;BME280;18697;42.770;23.400;2023-02-28T11:55:41;96190.16;;;11.01;85.75
32197;BME280;18697;42.770;23.400;2023-02-28T12:06:17;96175.66;;;11.37;84.97
32197;BME280;18697;42.770;23.400;2023-02-28T12:08:53;96172.00;;;11.49;83.03
32197;BME280;18697;42.770;23.400;2023-02-28T12:20:01;96170.88;;;11.37;82.96
32197;BME280;18697;42.770;23.400;2023-02-28T12:25:19;96176.84;;;11.27;84.96
32197;BME280;18697;42.770;23.400;2023-02-28T12:27:47;96168.94;;;11.25;83.97
32197;BME280;18697;42.770;23.400;2023-02-28T12:32:44;96165.91;;;11.32;83.11
32197;BME280;18697;42.770;23.400;2023-02-28T12:35:17;96155.50;;;11.55;83.57
32197;BME280;18697;42.770;23.400;2023-02-28T12:37:50;96160.34;;;11.72;81.86
32197;BME280;18697;42.770;23.400;2023-02-28T12:40:22;96157.69;;;11.60;82.12
32197;BME280;18697;42.770;23.400;2023-02-28T12:42:51;96152.41;;;11.52;82.56
32197;BME280;18697;42.770;23.400;2023-02-28T12:47:59;96151.81;;;11.58;82.21
32197;BME280;18697;42.770;23.400;2023-02-28T12:50:27;96149.28;;;11.50;82.64
32197;BME280;18697;42.770;23.400;2023-02-28T12:53:00;96151.94;;;11.54;82.27
32197;BME280;18697;42.770;23.400;2023-02-28T12:58:11;96151.94;;;11.23;82.10
32197;BME280;18697;42.770;23.400;2023-02-28T13:06:26;96143.75;;;10.89;83.84
32197;BME280;18697;42.770;23.400;2023-02-28T13:09:11;96151.50;;;10.94;84.31
32197;BME280;18697;42.770;23.400;2023-02-28T13:11:47;96144.06;;;10.91;84.76
32197;BME280;18697;42.770;23.400;2023-02-28T13:14:30;96145.22;;;10.80;84.56
32197;BME280;18697;42.770;23.400;2023-02-28T13:19:33;96146.41;;;10.70;85.92
32197;BME280;18697;42.770;23.400;2023-02-28T13:22:00;96138.84;;;10.71;85.17
32197;BME280;18697;42.770;23.400;2023-02-28T13:24:55;96140.91;;;10.79;85.46
32197;BME280;18697;42.770;23.400;2023-02-28T13:29:52;96136.38;;;10.95;84.13
32197;BME280;18697;42.770;23.400;2023-02-28T13:39:49;96141.09;;;11.16;83.09
32197;BME280;18697;42.770;23.400;2023-02-28T13:42:34;96135.91;;;11.27;81.96
32197;BME280;18697;42.770;23.400;2023-02-28T13:56:01;96133.53;;;11.47;80.78
32197;BME280;18697;42.770;23.400;2023-02-28T13:58:58;96129.16;;;11.37;80.24
32197;BME280;18697;42.770;23.400;2023-02-28T14:01:40;96119.28;;;11.45;80.52
32197;BME280;18697;42.770;23.400;2023-02-28T14:06:37;96127.00;;;11.41;79.94
32197;BME280;18697;42.770;23.400;2023-02-28T14:09:21;96126.81;;;11.36;79.86
32197;BME280;18697;42.770;23.400;2023-02-28T14:11:48;96136.09;;;11.33;79.40
32197;BME280;18697;42.770;23.400;2023-02-28T14:17:06;96138.94;;;11.11;76.98
32197;BME280;18697;42.770;23.400;2023-02-28T14:19:36;96140.25;;;10.97;77.03
32197;BME280;18697;42.770;23.400;2023-02-28T14:33:39;96143.81;;;10.76;77.76
32197;BME280;18697;42.770;23.400;2023-02-28T14:36:21;96150.91;;;10.77;77.68
32197;BME280;18697;42.770;23.400;2023-02-28T14:38:57;96157.00;;;10.84;77.24
32197;BME280;18697;42.770;23.400;2023-02-28T14:41:38;96154.91;;;10.76;76.62
32197;BME280;18697;42.770;23.400;2023-02-28T14:44:30;96154.91;;;10.54;76.52
32197;BME280;18697;42.770;23.400;2023-02-28T14:46:58;96158.25;;;10.49;77.63
32197;BME280;18697;42.770;23.400;2023-02-28T14:49:28;96156.19;;;10.40;77.86
32197;BME280;18697;42.770;23.400;2023-02-28T14:54:36;96156.00;;;10.35;78.20
32197;BME280;18697;42.770;23.400;2023-02-28T14:57:02;96153.38;;;10.18;77.24
32197;BME280;18697;42.770;23.400;2023-02-28T14:59:34;96158.25;;;10.14;77.61
32197;BME280;18697;42.770;23.400;2023-02-28T15:02:23;96149.44;;;9.94;77.47
32197;BME280;18697;42.770;23.400;2023-02-28T15:05:00;96157.16;;;9.65;77.54
32197;BME280;18697;42.770;23.400;2023-02-28T15:07:26;96163.16;;;9.50;78.54
32197;BME280;18697;42.770;23.400;2023-02-28T15:12:40;96154.03;;;9.12;79.66
32197;BME280;18697;42.770;23.400;2023-02-28T15:15:14;96161.09;;;9.00;79.84
32197;BME280;18697;42.770;23.400;2023-02-28T15:17:41;96162.06;;;8.81;80.63
32197;BME280;18697;42.770;23.400;2023-02-28T15:20:13;96162.63;;;8.76;80.96
32197;BME280;18697;42.770;23.400;2023-02-28T15:22:39;96154.81;;;8.58;81.33
32197;BME280;18697;42.770;23.400;2023-02-28T15:25:05;96155.03;;;8.64;81.99
32197;BME280;18697;42.770;23.400;2023-02-28T15:27:33;96164.19;;;8.48;81.46
32197;BME280;18697;42.770;23.400;2023-02-28T15:30:15;96161.28;;;8.39;81.91
32197;BME280;18697;42.770;23.400;2023-02-28T15:32:42;96170.94;;;8.31;81.91